Terminal Aerodrome Forecast
Issued by NWS

Home | Current Version | Previous Version | Text Only | Print | Product List | Glossary On
Versions: 1 2 3 4 5 6 7 8 9 10 11 12 13 14 15
000
FTUS44 KTSA 311122
TAFBVO
TAF
KBVO 311122Z 3112/0112 VRB03KT P6SM VCSH BKN050
     FM311700 04006KT P6SM VCTS BKN050CB
      TEMPO 3120/3124 3SM -TSRA BKN030CB
     FM010100 02003KT P6SM VCSH BKN050 BKN100=

USA.gov is the U.S. government's official web portal to all federal, state and local government web resources and services.